Terminal Aerodrome Forecast
Issued by NWS North Platte, NE

Home | Current Version | Previous Version | Graphics & Text | Print | Product List | Glossary On
Versions: 1 2 3 4 5 6 7 8 9 10 11 12 13 14
000
FTUS43 KLBF 041120
TAFVTN
TAF
KVTN 041120Z 0412/0512 VRB06KT P6SM FEW120 BKN200
     FM041500 21008KT P6SM SCT250
     FM050600 17007KT P6SM SCT100 BKN200=

USA.gov is the U.S. government's official web portal to all federal, state and local government web resources and services.